sensor_id;sensor_type;location;lat;lon;timestamp;temperature;humidity
5940;DHT22;2995;-31.998;115.906;2023-04-24T00:00:24;15.80;99.90
5940;DHT22;2995;-31.998;115.906;2023-04-24T00:02:58;15.80;99.90
5940;DHT22;2995;-31.998;115.906;2023-04-24T00:05:29;15.90;99.90
5940;DHT22;2995;-31.998;115.906;2023-04-24T00:08:03;16.00;99.90
5940;DHT22;2995;-31.998;115.906;2023-04-24T00:10:34;16.00;99.90
5940;DHT22;2995;-31.998;115.906;2023-04-24T00:13:06;16.00;99.90
5940;DHT22;2995;-31.998;115.906;2023-04-24T00:15:37;16.00;99.90
5940;DHT22;2995;-31.998;115.906;2023-04-24T00:18:11;16.10;99.90
5940;DHT22;2995;-31.998;115.906;2023-04-24T00:20:42;16.20;99.90
5940;DHT22;2995;-31.998;115.906;2023-04-24T00:23:14;16.20;99.90
5940;DHT22;2995;-31.998;115.906;2023-04-24T00:25:45;16.30;99.90
5940;DHT22;2995;-31.998;115.906;2023-04-24T00:28:17;16.20;99.90
5940;DHT22;2995;-31.998;115.906;2023-04-24T00:30:48;16.30;99.90
5940;DHT22;2995;-31.998;115.906;2023-04-24T00:33:21;16.20;99.90
5940;DHT22;2995;-31.998;115.906;2023-04-24T00:35:53;16.30;99.90
5940;DHT22;2995;-31.998;115.906;2023-04-24T00:38:24;16.40;99.90
5940;DHT22;2995;-31.998;115.906;2023-04-24T00:40:55;16.40;99.90
5940;DHT22;2995;-31.998;115.906;2023-04-24T00:43:27;16.30;99.90
5940;DHT22;2995;-31.998;115.906;2023-04-24T00:45:58;16.30;99.90
5940;DHT22;2995;-31.998;115.906;2023-04-24T00:48:32;16.50;99.90
5940;DHT22;2995;-31.998;115.906;2023-04-24T00:51:04;16.40;99.90
5940;DHT22;2995;-31.998;115.906;2023-04-24T00:53:35;16.40;99.90
5940;DHT22;2995;-31.998;115.906;2023-04-24T00:56:07;16.40;99.90
5940;DHT22;2995;-31.998;115.906;2023-04-24T00:58:38;16.50;99.90
5940;DHT22;2995;-31.998;115.906;2023-04-24T01:01:10;16.60;99.90
5940;DHT22;2995;-31.998;115.906;2023-04-24T01:03:44;16.70;99.90
5940;DHT22;2995;-31.998;115.906;2023-04-24T01:06:15;16.70;99.90
5940;DHT22;2995;-31.998;115.906;2023-04-24T01:08:47;16.80;99.90
5940;DHT22;2995;-31.998;115.906;2023-04-24T01:11:19;16.80;99.90
5940;DHT22;2995;-31.998;115.906;2023-04-24T01:13:51;17.00;99.90
5940;DHT22;2995;-31.998;115.906;2023-04-24T01:16:23;17.00;99.90
5940;DHT22;2995;-31.998;115.906;2023-04-24T01:18:56;17.00;99.90
5940;DHT22;2995;-31.998;115.906;2023-04-24T01:21:28;17.10;99.90
5940;DHT22;2995;-31.998;115.906;2023-04-24T01:24:03;17.20;99.90
5940;DHT22;2995;-31.998;115.906;2023-04-24T01:26:35;17.30;99.90
5940;DHT22;2995;-31.998;115.906;2023-04-24T01:29:06;17.40;99.90
5940;DHT22;2995;-31.998;115.906;2023-04-24T01:31:38;17.40;99.90
5940;DHT22;2995;-31.998;115.906;2023-04-24T01:34:10;17.20;99.90
5940;DHT22;2995;-31.998;115.906;2023-04-24T01:36:43;17.10;99.90
5940;DHT22;2995;-31.998;115.906;2023-04-24T01:39:18;17.20;99.90
5940;DHT22;2995;-31.998;115.906;2023-04-24T01:41:51;17.10;99.90
5940;DHT22;2995;-31.998;115.906;2023-04-24T01:44:22;17.10;99.90
5940;DHT22;2995;-31.998;115.906;2023-04-24T01:46:54;17.10;99.90
5940;DHT22;2995;-31.998;115.906;2023-04-24T01:49:25;17.00;99.90
5940;DHT22;2995;-31.998;115.906;2023-04-24T01:51:57;17.00;99.90
5940;DHT22;2995;-31.998;115.906;2023-04-24T01:54:30;17.00;99.90
5940;DHT22;2995;-31.998;115.906;2023-04-24T01:57:02;16.90;99.90
5940;DHT22;2995;-31.998;115.906;2023-04-24T01:59:34;17.00;99.90
5940;DHT22;2995;-31.998;115.906;2023-04-24T02:02:06;17.20;99.90
5940;DHT22;2995;-31.998;115.906;2023-04-24T02:04:37;17.40;99.90
5940;DHT22;2995;-31.998;115.906;2023-04-24T02:07:08;17.50;99.90
5940;DHT22;2995;-31.998;115.906;2023-04-24T02:09:42;17.40;99.90
5940;DHT22;2995;-31.998;115.906;2023-04-24T02:12:13;17.30;99.90
5940;DHT22;2995;-31.998;115.906;2023-04-24T02:14:45;17.50;99.90
5940;DHT22;2995;-31.998;115.906;2023-04-24T02:17:16;17.50;99.90
5940;DHT22;2995;-31.998;115.906;2023-04-24T02:19:48;17.50;99.90
5940;DHT22;2995;-31.998;115.906;2023-04-24T02:22:19;17.40;99.90
5940;DHT22;2995;-31.998;115.906;2023-04-24T02:24:53;17.60;99.90
5940;DHT22;2995;-31.998;115.906;2023-04-24T02:27:24;17.50;99.90
5940;DHT22;2995;-31.998;115.906;2023-04-24T02:29:55;17.40;99.90
5940;DHT22;2995;-31.998;115.906;2023-04-24T02:32:27;17.60;99.90
5940;DHT22;2995;-31.998;115.906;2023-04-24T02:34:59;17.70;99.90
5940;DHT22;2995;-31.998;115.906;2023-04-24T02:37:30;17.60;99.90
5940;DHT22;2995;-31.998;115.906;2023-04-24T02:40:04;17.60;99.90
5940;DHT22;2995;-31.998;115.906;2023-04-24T02:42:35;17.70;99.90
5940;DHT22;2995;-31.998;115.906;2023-04-24T02:45:08;17.70;99.90
5940;DHT22;2995;-31.998;115.906;2023-04-24T02:47:39;17.70;99.90
5940;DHT22;2995;-31.998;115.906;2023-04-24T02:50:11;17.80;99.90
5940;DHT22;2995;-31.998;115.906;2023-04-24T02:52:42;17.90;99.90
5940;DHT22;2995;-31.998;115.906;2023-04-24T02:55:15;18.00;99.90
5940;DHT22;2995;-31.998;115.906;2023-04-24T02:57:47;18.10;99.90
5940;DHT22;2995;-31.998;115.906;2023-04-24T03:00:18;18.20;99.90
5940;DHT22;2995;-31.998;115.906;2023-04-24T03:02:50;18.30;99.90
5940;DHT22;2995;-31.998;115.906;2023-04-24T03:05:21;18.40;99.90
5940;DHT22;2995;-31.998;115.906;2023-04-24T03:07:53;18.60;99.90
5940;DHT22;2995;-31.998;115.906;2023-04-24T03:10:26;18.60;99.90
5940;DHT22;2995;-31.998;115.906;2023-04-24T03:12:57;18.50;99.90
5940;DHT22;2995;-31.998;115.906;2023-04-24T03:15:28;18.50;99.90
5940;DHT22;2995;-31.998;115.906;2023-04-24T03:18:00;18.50;99.90
5940;DHT22;2995;-31.998;115.906;2023-04-24T03:20:31;18.60;99.90
5940;DHT22;2995;-31.998;115.906;2023-04-24T03:23:03;18.50;99.90
5940;DHT22;2995;-31.998;115.906;2023-04-24T03:25:36;18.60;99.90
5940;DHT22;2995;-31.998;115.906;2023-04-24T03:28:07;18.90;99.90
5940;DHT22;2995;-31.998;115.906;2023-04-24T03:30:38;19.10;99.90
5940;DHT22;2995;-31.998;115.906;2023-04-24T03:33:10;18.80;99.90
5940;DHT22;2995;-31.998;115.906;2023-04-24T03:35:41;18.80;99.90
5940;DHT22;2995;-31.998;115.906;2023-04-24T03:38:13;18.70;99.90
5940;DHT22;2995;-31.998;115.906;2023-04-24T03:40:46;18.80;99.90
5940;DHT22;2995;-31.998;115.906;2023-04-24T03:43:17;18.80;99.90
5940;DHT22;2995;-31.998;115.906;2023-04-24T03:45:49;18.90;99.90
5940;DHT22;2995;-31.998;115.906;2023-04-24T03:48:20;18.90;99.90
5940;DHT22;2995;-31.998;115.906;2023-04-24T03:50:51;18.90;99.90
5940;DHT22;2995;-31.998;115.906;2023-04-24T03:53:23;19.00;99.90
5940;DHT22;2995;-31.998;115.906;2023-04-24T03:55:56;19.30;99.90
5940;DHT22;2995;-31.998;115.906;2023-04-24T03:58:28;19.60;99.90
5940;DHT22;2995;-31.998;115.906;2023-04-24T04:00:59;19.50;99.90
5940;DHT22;2995;-31.998;115.906;2023-04-24T04:03:30;19.30;99.90
5940;DHT22;2995;-31.998;115.906;2023-04-24T04:06:02;19.30;99.90
5940;DHT22;2995;-31.998;115.906;2023-04-24T04:08:33;19.30;99.90
5940;DHT22;2995;-31.998;115.906;2023-04-24T04:11:06;19.20;99.90
5940;DHT22;2995;-31.998;115.906;2023-04-24T04:13:37;19.00;99.90
5940;DHT22;2995;-31.998;115.906;2023-04-24T04:16:10;18.80;99.90
5940;DHT22;2995;-31.998;115.906;2023-04-24T04:18:41;18.50;99.90
5940;DHT22;2995;-31.998;115.906;2023-04-24T04:21:12;18.50;99.90
5940;DHT22;2995;-31.998;115.906;2023-04-24T04:23:43;18.60;99.90
5940;DHT22;2995;-31.998;115.906;2023-04-24T04:26:16;18.70;99.90
5940;DHT22;2995;-31.998;115.906;2023-04-24T04:28:49;18.80;99.90
5940;DHT22;2995;-31.998;115.906;2023-04-24T04:31:20;18.90;99.90
5940;DHT22;2995;-31.998;115.906;2023-04-24T04:33:51;18.90;99.90
5940;DHT22;2995;-31.998;115.906;2023-04-24T04:36:23;18.80;99.90
5940;DHT22;2995;-31.998;115.906;2023-04-24T04:38:54;18.70;99.90
5940;DHT22;2995;-31.998;115.906;2023-04-24T04:41:29;18.70;99.90
5940;DHT22;2995;-31.998;115.906;2023-04-24T04:44:00;18.50;99.90
5940;DHT22;2995;-31.998;115.906;2023-04-24T04:46:33;18.40;99.90
5940;DHT22;2995;-31.998;115.906;2023-04-24T04:49:05;18.30;99.90
5940;DHT22;2995;-31.998;115.906;2023-04-24T04:51:36;18.00;99.90
5940;DHT22;2995;-31.998;115.906;2023-04-24T04:54:07;18.10;99.90
5940;DHT22;2995;-31.998;115.906;2023-04-24T04:56:41;17.80;99.90
5940;DHT22;2995;-31.998;115.906;2023-04-24T04:59:12;17.10;99.90
5940;DHT22;2995;-31.998;115.906;2023-04-24T05:01:43;17.00;99.90
5940;DHT22;2995;-31.998;115.906;2023-04-24T05:04:14;17.20;99.90
5940;DHT22;2995;-31.998;115.906;2023-04-24T05:06:46;17.30;99.90
5940;DHT22;2995;-31.998;115.906;2023-04-24T05:09:19;17.40;99.90
5940;DHT22;2995;-31.998;115.906;2023-04-24T05:11:52;17.50;99.90
5940;DHT22;2995;-31.998;115.906;2023-04-24T05:14:23;17.80;99.90
5940;DHT22;2995;-31.998;115.906;2023-04-24T05:16:55;17.50;99.90
5940;DHT22;2995;-31.998;115.906;2023-04-24T05:19:26;17.80;99.90
5940;DHT22;2995;-31.998;115.906;2023-04-24T05:21:57;18.00;99.90
5940;DHT22;2995;-31.998;115.906;2023-04-24T05:24:33;18.10;99.90
5940;DHT22;2995;-31.998;115.906;2023-04-24T05:27:06;18.30;99.90
5940;DHT22;2995;-31.998;115.906;2023-04-24T05:29:37;18.50;99.90
5940;DHT22;2995;-31.998;115.906;2023-04-24T05:32:09;18.30;99.90
5940;DHT22;2995;-31.998;115.906;2023-04-24T05:34:40;18.20;99.90
5940;DHT22;2995;-31.998;115.906;2023-04-24T05:37:11;18.30;99.90
5940;DHT22;2995;-31.998;115.906;2023-04-24T05:39:43;18.30;99.90
5940;DHT22;2995;-31.998;115.906;2023-04-24T05:42:16;18.00;99.90
5940;DHT22;2995;-31.998;115.906;2023-04-24T05:44:47;18.00;99.90
5940;DHT22;2995;-31.998;115.906;2023-04-24T05:47:18;17.70;99.90
5940;DHT22;2995;-31.998;115.906;2023-04-24T05:49:50;17.80;99.90
5940;DHT22;2995;-31.998;115.906;2023-04-24T05:52:21;17.80;99.90
5940;DHT22;2995;-31.998;115.906;2023-04-24T05:54:52;17.50;99.90
5940;DHT22;2995;-31.998;115.906;2023-04-24T05:57:26;17.70;99.90
5940;DHT22;2995;-31.998;115.906;2023-04-24T05:59:57;17.50;99.90
5940;DHT22;2995;-31.998;115.906;2023-04-24T06:02:28;17.50;99.90
5940;DHT22;2995;-31.998;115.906;2023-04-24T06:05:00;17.40;99.90
5940;DHT22;2995;-31.998;115.906;2023-04-24T06:07:33;17.20;99.90
5940;DHT22;2995;-31.998;115.906;2023-04-24T06:10:04;17.20;99.90
5940;DHT22;2995;-31.998;115.906;2023-04-24T06:12:37;17.30;99.90
5940;DHT22;2995;-31.998;115.906;2023-04-24T06:15:09;17.60;99.90
5940;DHT22;2995;-31.998;115.906;2023-04-24T06:17:41;17.40;99.90
5940;DHT22;2995;-31.998;115.906;2023-04-24T06:20:12;17.20;99.90
5940;DHT22;2995;-31.998;115.906;2023-04-24T06:22:43;17.20;99.90
5940;DHT22;2995;-31.998;115.906;2023-04-24T06:25:14;17.40;99.90
5940;DHT22;2995;-31.998;115.906;2023-04-24T06:27:48;17.30;99.90
5940;DHT22;2995;-31.998;115.906;2023-04-24T06:30:19;17.20;99.90
5940;DHT22;2995;-31.998;115.906;2023-04-24T06:32:50;17.20;99.90
5940;DHT22;2995;-31.998;115.906;2023-04-24T06:35:22;17.40;99.90
5940;DHT22;2995;-31.998;115.906;2023-04-24T06:37:53;17.30;99.90
5940;DHT22;2995;-31.998;115.906;2023-04-24T06:40:24;17.30;99.90
5940;DHT22;2995;-31.998;115.906;2023-04-24T06:42:58;17.50;99.90
5940;DHT22;2995;-31.998;115.906;2023-04-24T06:45:30;17.60;99.90
5940;DHT22;2995;-31.998;115.906;2023-04-24T06:48:02;17.60;99.90
5940;DHT22;2995;-31.998;115.906;2023-04-24T06:50:34;17.60;99.90
5940;DHT22;2995;-31.998;115.906;2023-04-24T06:53:05;17.50;99.90
5940;DHT22;2995;-31.998;115.906;2023-04-24T06:55:39;17.60;99.90
5940;DHT22;2995;-31.998;115.906;2023-04-24T06:58:13;17.60;99.90
5940;DHT22;2995;-31.998;115.906;2023-04-24T07:00:44;17.60;99.90
5940;DHT22;2995;-31.998;115.906;2023-04-24T07:03:16;17.80;99.90
5940;DHT22;2995;-31.998;115.906;2023-04-24T07:05:47;17.70;99.90
5940;DHT22;2995;-31.998;115.906;2023-04-24T07:08:19;17.50;99.90
5940;DHT22;2995;-31.998;115.906;2023-04-24T07:10:51;17.60;99.90
5940;DHT22;2995;-31.998;115.906;2023-04-24T07:13:24;17.70;99.90
5940;DHT22;2995;-31.998;115.906;2023-04-24T07:15:55;17.40;99.90
5940;DHT22;2995;-31.998;115.906;2023-04-24T07:18:27;17.40;99.90
5940;DHT22;2995;-31.998;115.906;2023-04-24T07:20:58;17.50;99.90
5940;DHT22;2995;-31.998;115.906;2023-04-24T07:23:30;17.70;99.90
5940;DHT22;2995;-31.998;115.906;2023-04-24T07:26:02;17.70;99.90
5940;DHT22;2995;-31.998;115.906;2023-04-24T07:28:35;17.50;99.90
5940;DHT22;2995;-31.998;115.906;2023-04-24T07:31:06;17.40;99.90
5940;DHT22;2995;-31.998;115.906;2023-04-24T07:33:38;17.50;99.90
5940;DHT22;2995;-31.998;115.906;2023-04-24T07:36:09;17.40;99.90
5940;DHT22;2995;-31.998;115.906;2023-04-24T07:38:45;17.30;99.90
5940;DHT22;2995;-31.998;115.906;2023-04-24T07:41:16;17.30;99.90
5940;DHT22;2995;-31.998;115.906;2023-04-24T07:43:50;17.50;99.90
5940;DHT22;2995;-31.998;115.906;2023-04-24T07:46:22;17.50;99.90
5940;DHT22;2995;-31.998;115.906;2023-04-24T07:48:53;17.50;99.90
5940;DHT22;2995;-31.998;115.906;2023-04-24T07:51:25;17.50;99.90
5940;DHT22;2995;-31.998;115.906;2023-04-24T07:53:56;17.50;99.90
5940;DHT22;2995;-31.998;115.906;2023-04-24T07:56:28;17.60;99.90
5940;DHT22;2995;-31.998;115.906;2023-04-24T07:59:01;17.60;99.90
5940;DHT22;2995;-31.998;115.906;2023-04-24T08:01:33;17.50;99.90
5940;DHT22;2995;-31.998;115.906;2023-04-24T08:04:04;17.50;99.90
5940;DHT22;2995;-31.998;115.906;2023-04-24T08:06:35;17.40;99.90
5940;DHT22;2995;-31.998;115.906;2023-04-24T08:09:07;17.30;99.90
5940;DHT22;2995;-31.998;115.906;2023-04-24T08:11:38;17.20;99.90
5940;DHT22;2995;-31.998;115.906;2023-04-24T08:14:13;17.30;99.90
5940;DHT22;2995;-31.998;115.906;2023-04-24T08:16:46;17.20;99.90
5940;DHT22;2995;-31.998;115.906;2023-04-24T08:19:17;17.00;99.90
5940;DHT22;2995;-31.998;115.906;2023-04-24T08:21:48;17.00;99.90
5940;DHT22;2995;-31.998;115.906;2023-04-24T08:24:20;17.10;99.90
5940;DHT22;2995;-31.998;115.906;2023-04-24T08:26:51;17.10;99.90
5940;DHT22;2995;-31.998;115.906;2023-04-24T08:29:28;17.00;99.90
5940;DHT22;2995;-31.998;115.906;2023-04-24T08:31:59;17.00;99.90
5940;DHT22;2995;-31.998;115.906;2023-04-24T08:34:30;17.00;99.90
5940;DHT22;2995;-31.998;115.906;2023-04-24T08:37:02;16.80;99.90
5940;DHT22;2995;-31.998;115.906;2023-04-24T08:39:34;16.90;99.90
5940;DHT22;2995;-31.998;115.906;2023-04-24T08:42:05;17.10;99.90
5940;DHT22;2995;-31.998;115.906;2023-04-24T08:44:39;17.20;99.90
5940;DHT22;2995;-31.998;115.906;2023-04-24T08:47:10;17.00;99.90
5940;DHT22;2995;-31.998;115.906;2023-04-24T08:49:42;17.00;99.90
5940;DHT22;2995;-31.998;115.906;2023-04-24T08:52:13;17.10;99.90
5940;DHT22;2995;-31.998;115.906;2023-04-24T08:54:47;17.20;99.90
5940;DHT22;2995;-31.998;115.906;2023-04-24T08:57:18;17.20;99.90
5940;DHT22;2995;-31.998;115.906;2023-04-24T08:59:52;16.80;99.90
5940;DHT22;2995;-31.998;115.906;2023-04-24T09:02:26;16.80;99.90
5940;DHT22;2995;-31.998;115.906;2023-04-24T09:04:57;16.80;99.90
5940;DHT22;2995;-31.998;115.906;2023-04-24T09:07:29;16.80;99.90
5940;DHT22;2995;-31.998;115.906;2023-04-24T09:10:02;16.70;99.90
5940;DHT22;2995;-31.998;115.906;2023-04-24T09:12:34;16.50;99.90
5940;DHT22;2995;-31.998;115.906;2023-04-24T09:15:08;16.60;99.90
5940;DHT22;2995;-31.998;115.906;2023-04-24T09:17:40;16.60;99.90
5940;DHT22;2995;-31.998;115.906;2023-04-24T09:20:11;16.50;99.90
5940;DHT22;2995;-31.998;115.906;2023-04-24T09:22:44;16.50;99.90
5940;DHT22;2995;-31.998;115.906;2023-04-24T09:25:16;16.40;99.90
5940;DHT22;2995;-31.998;115.906;2023-04-24T09:27:47;16.30;99.90
5940;DHT22;2995;-31.998;115.906;2023-04-24T09:30:23;16.30;99.90
5940;DHT22;2995;-31.998;115.906;2023-04-24T09:33:10;16.30;99.90
5940;DHT22;2995;-31.998;115.906;2023-04-24T09:35:43;16.40;99.90
5940;DHT22;2995;-31.998;115.906;2023-04-24T09:38:19;16.40;99.90
5940;DHT22;2995;-31.998;115.906;2023-04-24T09:40:51;16.30;99.90
5940;DHT22;2995;-31.998;115.906;2023-04-24T09:43:22;16.40;99.90
5940;DHT22;2995;-31.998;115.906;2023-04-24T09:45:56;16.10;99.90
5940;DHT22;2995;-31.998;115.906;2023-04-24T09:48:32;16.00;99.90
5940;DHT22;2995;-31.998;115.906;2023-04-24T09:51:04;15.90;99.90
5940;DHT22;2995;-31.998;115.906;2023-04-24T09:53:38;15.90;99.90
5940;DHT22;2995;-31.998;115.906;2023-04-24T09:56:10;16.00;99.90
5940;DHT22;2995;-31.998;115.906;2023-04-24T09:58:42;15.90;99.90
5940;DHT22;2995;-31.998;115.906;2023-04-24T10:01:15;15.90;99.90
5940;DHT22;2995;-31.998;115.906;2023-04-24T10:03:47;15.80;99.90
5940;DHT22;2995;-31.998;115.906;2023-04-24T10:06:18;15.80;99.90
5940;DHT22;2995;-31.998;115.906;2023-04-24T10:08:50;15.70;99.90
5940;DHT22;2995;-31.998;115.906;2023-04-24T10:11:21;15.80;99.90
5940;DHT22;2995;-31.998;115.906;2023-04-24T10:13:52;15.90;99.90
5940;DHT22;2995;-31.998;115.906;2023-04-24T10:16:27;16.00;99.90
5940;DHT22;2995;-31.998;115.906;2023-04-24T10:19:01;15.90;99.90
5940;DHT22;2995;-31.998;115.906;2023-04-24T10:21:34;15.80;99.90
5940;DHT22;2995;-31.998;115.906;2023-04-24T10:24:10;15.80;99.90
5940;DHT22;2995;-31.998;115.906;2023-04-24T10:26:43;15.70;99.90
5940;DHT22;2995;-31.998;115.906;2023-04-24T10:29:19;15.60;99.90
5940;DHT22;2995;-31.998;115.906;2023-04-24T10:31:54;15.60;99.90
5940;DHT22;2995;-31.998;115.906;2023-04-24T10:34:25;15.60;99.90
5940;DHT22;2995;-31.998;115.906;2023-04-24T10:36:57;15.50;99.90
5940;DHT22;2995;-31.998;115.906;2023-04-24T10:39:28;15.50;99.90
5940;DHT22;2995;-31.998;115.906;2023-04-24T10:42:01;15.50;99.90
5940;DHT22;2995;-31.998;115.906;2023-04-24T10:44:39;15.40;99.90
5940;DHT22;2995;-31.998;115.906;2023-04-24T10:47:16;15.30;99.90
5940;DHT22;2995;-31.998;115.906;2023-04-24T10:49:47;15.40;99.90
5940;DHT22;2995;-31.998;115.906;2023-04-24T10:52:21;15.30;99.90
5940;DHT22;2995;-31.998;115.906;2023-04-24T10:54:53;15.50;99.90
5940;DHT22;2995;-31.998;115.906;2023-04-24T10:57:30;15.60;99.90
5940;DHT22;2995;-31.998;115.906;2023-04-24T11:00:16;15.40;99.90
5940;DHT22;2995;-31.998;115.906;2023-04-24T11:02:49;15.40;99.90
5940;DHT22;2995;-31.998;115.906;2023-04-24T11:05:48;15.40;99.90
5940;DHT22;2995;-31.998;115.906;2023-04-24T11:08:16;15.50;99.90
5940;DHT22;2995;-31.998;115.906;2023-04-24T11:11:00;15.50;99.90
5940;DHT22;2995;-31.998;115.906;2023-04-24T11:14:07;15.50;99.90
5940;DHT22;2995;-31.998;115.906;2023-04-24T11:16:46;15.50;99.90
5940;DHT22;2995;-31.998;115.906;2023-04-24T11:19:25;15.50;99.90
5940;DHT22;2995;-31.998;115.906;2023-04-24T11:21:58;15.40;99.90
5940;DHT22;2995;-31.998;115.906;2023-04-24T11:24:32;15.30;99.90
5940;DHT22;2995;-31.998;115.906;2023-04-24T11:27:12;15.30;99.90
5940;DHT22;2995;-31.998;115.906;2023-04-24T11:29:45;15.20;99.90
5940;DHT22;2995;-31.998;115.906;2023-04-24T11:32:29;15.20;99.90
5940;DHT22;2995;-31.998;115.906;2023-04-24T11:35:03;15.10;99.90
5940;DHT22;2995;-31.998;115.906;2023-04-24T11:37:37;15.00;99.90
5940;DHT22;2995;-31.998;115.906;2023-04-24T11:40:10;14.90;99.90
5940;DHT22;2995;-31.998;115.906;2023-04-24T11:42:43;14.80;99.90
5940;DHT22;2995;-31.998;115.906;2023-04-24T11:45:16;14.70;99.90
5940;DHT22;2995;-31.998;115.906;2023-04-24T11:47:47;14.60;99.90
5940;DHT22;2995;-31.998;115.906;2023-04-24T11:50:23;14.50;99.90
5940;DHT22;2995;-31.998;115.906;2023-04-24T11:52:55;14.40;99.90
5940;DHT22;2995;-31.998;115.906;2023-04-24T11:55:29;14.40;99.90
5940;DHT22;2995;-31.998;115.906;2023-04-24T11:58:00;14.40;99.90
5940;DHT22;2995;-31.998;115.906;2023-04-24T12:00:32;14.30;99.90
5940;DHT22;2995;-31.998;115.906;2023-04-24T12:03:08;14.30;99.90
5940;DHT22;2995;-31.998;115.906;2023-04-24T12:05:41;14.00;99.90
5940;DHT22;2995;-31.998;115.906;2023-04-24T12:08:13;14.00;99.90
5940;DHT22;2995;-31.998;115.906;2023-04-24T12:10:57;13.90;99.90
5940;DHT22;2995;-31.998;115.906;2023-04-24T12:13:29;13.80;99.90
5940;DHT22;2995;-31.998;115.906;2023-04-24T12:16:00;13.70;99.90
5940;DHT22;2995;-31.998;115.906;2023-04-24T12:18:32;13.70;99.90
5940;DHT22;2995;-31.998;115.906;2023-04-24T12:21:24;13.60;99.90
5940;DHT22;2995;-31.998;115.906;2023-04-24T12:23:58;13.60;99.90
5940;DHT22;2995;-31.998;115.906;2023-04-24T12:26:29;13.60;99.90
5940;DHT22;2995;-31.998;115.906;2023-04-24T12:29:02;13.60;99.90
5940;DHT22;2995;-31.998;115.906;2023-04-24T12:31:35;13.60;99.90
5940;DHT22;2995;-31.998;115.906;2023-04-24T12:34:18;13.70;99.90
5940;DHT22;2995;-31.998;115.906;2023-04-24T12:36:52;13.40;99.90
5940;DHT22;2995;-31.998;115.906;2023-04-24T12:39:25;13.50;99.90
5940;DHT22;2995;-31.998;115.906;2023-04-24T12:41:57;13.40;99.90
5940;DHT22;2995;-31.998;115.906;2023-04-24T12:44:32;13.50;99.90
5940;DHT22;2995;-31.998;115.906;2023-04-24T12:47:05;13.70;99.90
5940;DHT22;2995;-31.998;115.906;2023-04-24T12:49:37;13.90;99.90
5940;DHT22;2995;-31.998;115.906;2023-04-24T12:52:11;13.90;99.90
5940;DHT22;2995;-31.998;115.906;2023-04-24T12:54:42;13.90;99.90
5940;DHT22;2995;-31.998;115.906;2023-04-24T12:57:13;14.00;99.90
5940;DHT22;2995;-31.998;115.906;2023-04-24T12:59:45;14.00;99.90
5940;DHT22;2995;-31.998;115.906;2023-04-24T13:02:16;14.10;99.90
5940;DHT22;2995;-31.998;115.906;2023-04-24T13:04:48;14.00;99.90
5940;DHT22;2995;-31.998;115.906;2023-04-24T13:07:21;14.00;99.90
5940;DHT22;2995;-31.998;115.906;2023-04-24T13:09:53;14.00;99.90
5940;DHT22;2995;-31.998;115.906;2023-04-24T13:12:25;14.10;99.90
5940;DHT22;2995;-31.998;115.906;2023-04-24T13:14:58;13.90;99.90
5940;DHT22;2995;-31.998;115.906;2023-04-24T13:17:29;13.90;99.90
5940;DHT22;2995;-31.998;115.906;2023-04-24T13:20:01;14.00;99.90
5940;DHT22;2995;-31.998;115.906;2023-04-24T13:22:35;14.00;99.90
5940;DHT22;2995;-31.998;115.906;2023-04-24T13:25:08;14.00;99.90
5940;DHT22;2995;-31.998;115.906;2023-04-24T13:27:44;13.60;99.90
5940;DHT22;2995;-31.998;115.906;2023-04-24T13:30:16;13.80;99.90
5940;DHT22;2995;-31.998;115.906;2023-04-24T13:32:47;13.80;99.90
5940;DHT22;2995;-31.998;115.906;2023-04-24T13:35:18;13.80;99.90
5940;DHT22;2995;-31.998;115.906;2023-04-24T13:37:52;13.80;99.90
5940;DHT22;2995;-31.998;115.906;2023-04-24T13:40:23;13.80;99.90
5940;DHT22;2995;-31.998;115.906;2023-04-24T13:42:54;13.90;99.90
5940;DHT22;2995;-31.998;115.906;2023-04-24T13:45:26;13.90;99.90
5940;DHT22;2995;-31.998;115.906;2023-04-24T13:47:57;13.80;99.90
5940;DHT22;2995;-31.998;115.906;2023-04-24T13:50:29;13.80;99.90
5940;DHT22;2995;-31.998;115.906;2023-04-24T13:53:03;13.80;99.90
5940;DHT22;2995;-31.998;115.906;2023-04-24T13:55:35;13.90;99.90
5940;DHT22;2995;-31.998;115.906;2023-04-24T13:58:07;13.80;99.90
5940;DHT22;2995;-31.998;115.906;2023-04-24T14:00:39;13.80;99.90
5940;DHT22;2995;-31.998;115.906;2023-04-24T14:03:10;13.70;99.90
5940;DHT22;2995;-31.998;115.906;2023-04-24T14:05:42;13.80;99.90
5940;DHT22;2995;-31.998;115.906;2023-04-24T14:08:15;13.70;99.90
5940;DHT22;2995;-31.998;115.906;2023-04-24T14:10:47;13.70;99.90
5940;DHT22;2995;-31.998;115.906;2023-04-24T14:13:18;13.70;99.90
5940;DHT22;2995;-31.998;115.906;2023-04-24T14:15:50;13.70;99.90
5940;DHT22;2995;-31.998;115.906;2023-04-24T14:18:22;13.70;99.90
5940;DHT22;2995;-31.998;115.906;2023-04-24T14:20:54;13.70;99.90
5940;DHT22;2995;-31.998;115.906;2023-04-24T14:23:28;13.60;99.90
5940;DHT22;2995;-31.998;115.906;2023-04-24T14:25:59;13.60;99.90
5940;DHT22;2995;-31.998;115.906;2023-04-24T14:28:30;13.40;99.90
5940;DHT22;2995;-31.998;115.906;2023-04-24T14:31:01;13.50;99.90
5940;DHT22;2995;-31.998;115.906;2023-04-24T14:33:33;13.40;99.90
5940;DHT22;2995;-31.998;115.906;2023-04-24T14:36:04;13.40;99.90
5940;DHT22;2995;-31.998;115.906;2023-04-24T14:38:38;13.30;99.90
5940;DHT22;2995;-31.998;115.906;2023-04-24T14:41:09;13.40;99.90
5940;DHT22;2995;-31.998;115.906;2023-04-24T14:43:40;13.40;99.90
5940;DHT22;2995;-31.998;115.906;2023-04-24T14:46:12;13.50;99.90
5940;DHT22;2995;-31.998;115.906;2023-04-24T14:48:43;13.40;99.90
5940;DHT22;2995;-31.998;115.906;2023-04-24T14:51:14;13.40;99.90
5940;DHT22;2995;-31.998;115.906;2023-04-24T14:53:47;13.40;99.90
5940;DHT22;2995;-31.998;115.906;2023-04-24T14:56:19;13.30;99.90
5940;DHT22;2995;-31.998;115.906;2023-04-24T14:58:50;13.30;99.90
5940;DHT22;2995;-31.998;115.906;2023-04-24T15:01:21;13.30;99.90
5940;DHT22;2995;-31.998;115.906;2023-04-24T15:03:53;13.30;99.90
5940;DHT22;2995;-31.998;115.906;2023-04-24T15:06:24;13.30;99.90
5940;DHT22;2995;-31.998;115.906;2023-04-24T15:08:57;13.10;99.90
5940;DHT22;2995;-31.998;115.906;2023-04-24T15:11:28;13.10;99.90
5940;DHT22;2995;-31.998;115.906;2023-04-24T15:14:00;13.00;99.90
5940;DHT22;2995;-31.998;115.906;2023-04-24T15:16:31;13.00;99.90
5940;DHT22;2995;-31.998;115.906;2023-04-24T15:19:02;13.00;99.90
5940;DHT22;2995;-31.998;115.906;2023-04-24T15:21:33;12.90;99.90
5940;DHT22;2995;-31.998;115.906;2023-04-24T15:24:07;12.90;99.90
5940;DHT22;2995;-31.998;115.906;2023-04-24T15:26:38;12.90;99.90
5940;DHT22;2995;-31.998;115.906;2023-04-24T15:29:10;12.90;99.90
5940;DHT22;2995;-31.998;115.906;2023-04-24T15:31:41;12.90;99.90
5940;DHT22;2995;-31.998;115.906;2023-04-24T15:34:12;12.90;99.90
5940;DHT22;2995;-31.998;115.906;2023-04-24T15:36:43;12.90;99.90
5940;DHT22;2995;-31.998;115.906;2023-04-24T15:39:17;12.90;99.90
5940;DHT22;2995;-31.998;115.906;2023-04-24T15:41:48;12.90;99.90
5940;DHT22;2995;-31.998;115.906;2023-04-24T15:44:20;12.80;99.90
5940;DHT22;2995;-31.998;115.906;2023-04-24T15:46:51;12.70;99.90